Aérodrome :
LOGIN :

S'inscrire | Disclaimer

   EN    FR    IT 

 










Légende :    VFR   VFR Marginal   IFR   IFR Intensif   IFR Très Intensif
Visi : 
Plafond : 
>= 8 km
>= 3000ft
5 à 8 km
1000 à 3000 ft
1500m à 5 km
500 à 1000 ft
800 à 1500m
200 à 500 ft
< 800m
< 200 ft
Symboles :   Orages  Brouillard  Fortes neiges  Fortes précipitations  Vent > 20 kt
SIGMETs :   Divers  Orages  Givrage  Turbulence  Onde Orograph.  Cendres Volcan.






- Altitude de l'aérodrome : 1521 ft
- Code IATA : NCY


LFLP - Annecy

DERNIER METAR :
  • 282200Z AUTO VRB03KT 9999 OVC043 08/04 Q1019

METARs EXPIRÉS :
  • 282130Z AUTO VRB03KT 9999 OVC043 08/04 Q1019
  • 282100Z AUTO VRB03KT 9999 OVC043 09/04 Q1019
  • 282030Z AUTO VRB03KT 9999 OVC042 09/04 Q1019
  • 282000Z AUTO VRB03KT 9999 OVC040 09/03 Q1019
  • 281930Z AUTO VRB03KT 9999 OVC039 09/03 Q1019
  • 281900Z AUTO 02009KT 9999 OVC040 09/04 Q1019 NOSIG
  • 281830Z AUTO 02008KT 9999 OVC039 09/04 Q1019 NOSIG
  • 281800Z AUTO 02011KT 9999 OVC040 09/04 Q1019 NOSIG
  • 281730Z AUTO 02010KT 9999 OVC039 09/04 Q1019 NOSIG

TAF TAF LFLP
Valide du 28 à 15h jusqu'au 29 à 15h UTC


281400Z 2815/2915 02007KT 9999 BKN030
BECMG 2819/2821 VRB02KT
PROB30
TEMPO 2904/2908 BKN012
BECMG 2909/2912 29006KT
BECMG 2912/2914 SCT030



MET'MAP, la Météo Aéronautique d'un coup d'oeil ! - Copyright ORBIFLY Décembre 2007 - Disclaimer

ORBIFLY MET'MAP TEAM :

Programmation & Développement : Alexandra Zaïnal
Sur une idée originale de : Baudouin d'Aumeries
Soutien technique & logistique : Manuel Goepfert
Assistance : Marc-Olivier Méhu




SOURCES & CREDITS :

   NOAA